sensor_id;sensor_type;location;lat;lon;timestamp;P1;durP1;ratioP1;P2;durP2;ratioP2
1775;SDS011;885;42.626;23.200;2022-07-31T00:01:47;11.03;;;9.93;;
1775;SDS011;885;42.626;23.200;2022-07-31T00:04:15;13.90;;;11.37;;
1775;SDS011;885;42.626;23.200;2022-07-31T00:06:43;10.47;;;9.37;;
1775;SDS011;885;42.626;23.200;2022-07-31T00:09:10;15.23;;;9.70;;
1775;SDS011;885;42.626;23.200;2022-07-31T00:11:38;10.07;;;8.70;;
1775;SDS011;885;42.626;23.200;2022-07-31T00:14:05;14.17;;;9.13;;
1775;SDS011;885;42.626;23.200;2022-07-31T00:16:32;11.97;;;10.60;;
1775;SDS011;885;42.626;23.200;2022-07-31T00:18:59;10.90;;;9.80;;
1775;SDS011;885;42.626;23.200;2022-07-31T00:21:26;11.50;;;10.40;;
1775;SDS011;885;42.626;23.200;2022-07-31T00:23:54;13.83;;;11.13;;
1775;SDS011;885;42.626;23.200;2022-07-31T00:26:21;8.67;;;7.80;;
1775;SDS011;885;42.626;23.200;2022-07-31T00:28:48;7.47;;;6.73;;
1775;SDS011;885;42.626;23.200;2022-07-31T00:31:14;9.50;;;6.90;;
1775;SDS011;885;42.626;23.200;2022-07-31T00:33:42;7.07;;;6.37;;
1775;SDS011;885;42.626;23.200;2022-07-31T00:36:09;11.43;;;6.50;;
1775;SDS011;885;42.626;23.200;2022-07-31T00:38:36;6.97;;;5.87;;
1775;SDS011;885;42.626;23.200;2022-07-31T00:41:04;10.17;;;7.37;;
1775;SDS011;885;42.626;23.200;2022-07-31T00:43:31;11.43;;;6.90;;
1775;SDS011;885;42.626;23.200;2022-07-31T00:45:57;7.90;;;6.77;;
1775;SDS011;885;42.626;23.200;2022-07-31T00:48:25;7.20;;;5.80;;
1775;SDS011;885;42.626;23.200;2022-07-31T00:50:51;8.73;;;6.97;;
1775;SDS011;885;42.626;23.200;2022-07-31T00:53:18;8.70;;;7.37;;
1775;SDS011;885;42.626;23.200;2022-07-31T00:55:45;11.37;;;6.87;;
1775;SDS011;885;42.626;23.200;2022-07-31T00:58:13;7.13;;;6.20;;
1775;SDS011;885;42.626;23.200;2022-07-31T01:00:40;9.13;;;7.30;;
1775;SDS011;885;42.626;23.200;2022-07-31T01:03:07;12.60;;;8.27;;
1775;SDS011;885;42.626;23.200;2022-07-31T01:05:34;10.37;;;6.40;;
1775;SDS011;885;42.626;23.200;2022-07-31T01:08:01;12.53;;;8.10;;
1775;SDS011;885;42.626;23.200;2022-07-31T01:10:32;10.20;;;7.17;;
1775;SDS011;885;42.626;23.200;2022-07-31T01:13:09;8.00;;;6.40;;
1775;SDS011;885;42.626;23.200;2022-07-31T01:15:46;6.87;;;6.10;;
1775;SDS011;885;42.626;23.200;2022-07-31T01:18:15;6.30;;;5.70;;
1775;SDS011;885;42.626;23.200;2022-07-31T01:20:43;8.33;;;6.13;;
1775;SDS011;885;42.626;23.200;2022-07-31T01:26:10;7.70;;;6.30;;
1775;SDS011;885;42.626;23.200;2022-07-31T01:29:02;6.93;;;6.23;;
1775;SDS011;885;42.626;23.200;2022-07-31T01:31:40;7.37;;;6.67;;
1775;SDS011;885;42.626;23.200;2022-07-31T01:34:10;6.50;;;5.90;;
1775;SDS011;885;42.626;23.200;2022-07-31T01:36:46;6.43;;;5.90;;
1775;SDS011;885;42.626;23.200;2022-07-31T01:39:16;6.53;;;5.70;;
1775;SDS011;885;42.626;23.200;2022-07-31T01:41:45;7.10;;;5.10;;
1775;SDS011;885;42.626;23.200;2022-07-31T01:44:15;5.73;;;5.13;;
1775;SDS011;885;42.626;23.200;2022-07-31T01:46:44;6.40;;;4.70;;
1775;SDS011;885;42.626;23.200;2022-07-31T01:49:13;5.73;;;5.17;;
1775;SDS011;885;42.626;23.200;2022-07-31T01:51:43;6.77;;;5.77;;
1775;SDS011;885;42.626;23.200;2022-07-31T01:54:13;8.13;;;5.40;;
1775;SDS011;885;42.626;23.200;2022-07-31T01:56:43;4.97;;;4.50;;
1775;SDS011;885;42.626;23.200;2022-07-31T01:59:13;5.80;;;5.20;;
1775;SDS011;885;42.626;23.200;2022-07-31T02:01:44;5.40;;;4.90;;
1775;SDS011;885;42.626;23.200;2022-07-31T02:04:12;6.00;;;5.40;;
1775;SDS011;885;42.626;23.200;2022-07-31T02:06:40;6.60;;;5.10;;
1775;SDS011;885;42.626;23.200;2022-07-31T02:09:08;5.20;;;4.70;;
1775;SDS011;885;42.626;23.200;2022-07-31T02:11:36;5.20;;;4.70;;
1775;SDS011;885;42.626;23.200;2022-07-31T02:14:03;5.60;;;5.10;;
1775;SDS011;885;42.626;23.200;2022-07-31T02:16:32;5.33;;;4.87;;
1775;SDS011;885;42.626;23.200;2022-07-31T02:19:00;6.40;;;5.13;;
1775;SDS011;885;42.626;23.200;2022-07-31T02:21:28;7.33;;;4.90;;
1775;SDS011;885;42.626;23.200;2022-07-31T02:23:55;4.83;;;4.33;;
1775;SDS011;885;42.626;23.200;2022-07-31T02:26:22;6.00;;;5.40;;
1775;SDS011;885;42.626;23.200;2022-07-31T02:28:52;7.33;;;5.40;;
1775;SDS011;885;42.626;23.200;2022-07-31T02:31:20;5.83;;;5.23;;
1775;SDS011;885;42.626;23.200;2022-07-31T02:33:49;6.67;;;6.07;;
1775;SDS011;885;42.626;23.200;2022-07-31T02:36:17;7.43;;;5.57;;
1775;SDS011;885;42.626;23.200;2022-07-31T02:38:47;6.97;;;6.27;;
1775;SDS011;885;42.626;23.200;2022-07-31T02:41:15;6.47;;;5.47;;
1775;SDS011;885;42.626;23.200;2022-07-31T02:43:43;6.20;;;5.60;;
1775;SDS011;885;42.626;23.200;2022-07-31T02:46:11;9.80;;;5.60;;
1775;SDS011;885;42.626;23.200;2022-07-31T02:48:38;8.93;;;6.23;;
1775;SDS011;885;42.626;23.200;2022-07-31T02:51:07;7.20;;;6.20;;
1775;SDS011;885;42.626;23.200;2022-07-31T02:53:34;7.83;;;6.77;;
1775;SDS011;885;42.626;23.200;2022-07-31T02:56:02;10.00;;;6.80;;
1775;SDS011;885;42.626;23.200;2022-07-31T02:58:33;6.87;;;5.83;;
1775;SDS011;885;42.626;23.200;2022-07-31T03:01:01;8.37;;;7.03;;
1775;SDS011;885;42.626;23.200;2022-07-31T03:03:30;6.87;;;6.27;;
1775;SDS011;885;42.626;23.200;2022-07-31T03:05:57;8.30;;;6.30;;
1775;SDS011;885;42.626;23.200;2022-07-31T03:08:26;7.57;;;6.50;;
1775;SDS011;885;42.626;23.200;2022-07-31T03:10:53;6.30;;;5.70;;
1775;SDS011;885;42.626;23.200;2022-07-31T03:13:21;7.13;;;6.43;;
1775;SDS011;885;42.626;23.200;2022-07-31T03:15:50;6.00;;;5.40;;
1775;SDS011;885;42.626;23.200;2022-07-31T03:18:17;6.97;;;6.13;;
1775;SDS011;885;42.626;23.200;2022-07-31T03:20:45;6.63;;;5.80;;
1775;SDS011;885;42.626;23.200;2022-07-31T03:23:15;6.63;;;6.03;;
1775;SDS011;885;42.626;23.200;2022-07-31T03:25:46;7.70;;;6.23;;
1775;SDS011;885;42.626;23.200;2022-07-31T03:28:14;6.73;;;6.17;;
1775;SDS011;885;42.626;23.200;2022-07-31T03:30:41;6.70;;;6.10;;
1775;SDS011;885;42.626;23.200;2022-07-31T03:33:08;8.37;;;6.03;;
1775;SDS011;885;42.626;23.200;2022-07-31T03:35:35;8.80;;;6.53;;
1775;SDS011;885;42.626;23.200;2022-07-31T03:38:02;10.07;;;6.83;;
1775;SDS011;885;42.626;23.200;2022-07-31T03:40:30;7.00;;;6.23;;
1775;SDS011;885;42.626;23.200;2022-07-31T03:42:58;7.87;;;6.63;;
1775;SDS011;885;42.626;23.200;2022-07-31T03:45:26;9.63;;;7.17;;
1775;SDS011;885;42.626;23.200;2022-07-31T03:47:54;7.20;;;6.23;;
1775;SDS011;885;42.626;23.200;2022-07-31T03:50:22;7.47;;;6.70;;
1775;SDS011;885;42.626;23.200;2022-07-31T03:52:50;6.87;;;6.17;;
1775;SDS011;885;42.626;23.200;2022-07-31T03:55:18;9.30;;;5.83;;
1775;SDS011;885;42.626;23.200;2022-07-31T03:57:44;6.37;;;5.77;;
1775;SDS011;885;42.626;23.200;2022-07-31T04:00:14;6.77;;;6.10;;
1775;SDS011;885;42.626;23.200;2022-07-31T04:02:42;7.83;;;5.13;;
1775;SDS011;885;42.626;23.200;2022-07-31T04:05:09;8.20;;;6.37;;
1775;SDS011;885;42.626;23.200;2022-07-31T04:07:35;8.10;;;6.60;;
1775;SDS011;885;42.626;23.200;2022-07-31T04:10:02;6.33;;;5.73;;
1775;SDS011;885;42.626;23.200;2022-07-31T04:12:30;7.03;;;6.17;;
1775;SDS011;885;42.626;23.200;2022-07-31T04:14:57;7.57;;;6.13;;
1775;SDS011;885;42.626;23.200;2022-07-31T04:17:25;9.67;;;6.83;;
1775;SDS011;885;42.626;23.200;2022-07-31T04:19:52;8.33;;;6.37;;
1775;SDS011;885;42.626;23.200;2022-07-31T04:22:19;7.23;;;6.53;;
1775;SDS011;885;42.626;23.200;2022-07-31T04:24:45;8.33;;;7.50;;
1775;SDS011;885;42.626;23.200;2022-07-31T04:27:14;9.20;;;8.40;;
1775;SDS011;885;42.626;23.200;2022-07-31T04:29:41;8.87;;;8.07;;
1775;SDS011;885;42.626;23.200;2022-07-31T04:32:07;8.67;;;7.73;;
1775;SDS011;885;42.626;23.200;2022-07-31T04:34:36;9.70;;;8.80;;
1775;SDS011;885;42.626;23.200;2022-07-31T04:37:03;8.47;;;7.67;;
1775;SDS011;885;42.626;23.200;2022-07-31T04:39:30;10.60;;;7.73;;
1775;SDS011;885;42.626;23.200;2022-07-31T04:41:57;11.50;;;8.93;;
1775;SDS011;885;42.626;23.200;2022-07-31T04:44:23;8.50;;;7.70;;
1775;SDS011;885;42.626;23.200;2022-07-31T04:46:50;10.27;;;9.20;;
1775;SDS011;885;42.626;23.200;2022-07-31T04:49:17;10.27;;;9.17;;
1775;SDS011;885;42.626;23.200;2022-07-31T04:51:45;10.50;;;8.90;;
1775;SDS011;885;42.626;23.200;2022-07-31T04:54:12;13.93;;;10.23;;
1775;SDS011;885;42.626;23.200;2022-07-31T04:56:39;10.90;;;9.90;;
1775;SDS011;885;42.626;23.200;2022-07-31T04:59:09;14.57;;;8.80;;
1775;SDS011;885;42.626;23.200;2022-07-31T05:01:37;11.07;;;10.07;;
1775;SDS011;885;42.626;23.200;2022-07-31T05:04:04;9.20;;;8.40;;
1775;SDS011;885;42.626;23.200;2022-07-31T05:06:35;13.73;;;9.77;;
1775;SDS011;885;42.626;23.200;2022-07-31T05:09:05;12.63;;;11.30;;
1775;SDS011;885;42.626;23.200;2022-07-31T05:11:35;14.07;;;11.40;;
1775;SDS011;885;42.626;23.200;2022-07-31T05:14:03;12.67;;;11.20;;
1775;SDS011;885;42.626;23.200;2022-07-31T05:16:31;11.83;;;10.70;;
1775;SDS011;885;42.626;23.200;2022-07-31T05:18:58;12.17;;;10.93;;
1775;SDS011;885;42.626;23.200;2022-07-31T05:21:26;12.70;;;11.50;;
1775;SDS011;885;42.626;23.200;2022-07-31T05:23:54;14.77;;;13.23;;
1775;SDS011;885;42.626;23.200;2022-07-31T05:26:23;14.70;;;13.20;;
1775;SDS011;885;42.626;23.200;2022-07-31T05:28:51;14.43;;;12.93;;
1775;SDS011;885;42.626;23.200;2022-07-31T05:31:19;13.00;;;11.60;;
1775;SDS011;885;42.626;23.200;2022-07-31T05:33:47;16.53;;;14.83;;
1775;SDS011;885;42.626;23.200;2022-07-31T05:36:15;14.57;;;13.07;;
1775;SDS011;885;42.626;23.200;2022-07-31T05:38:42;16.00;;;14.30;;
1775;SDS011;885;42.626;23.200;2022-07-31T05:41:09;14.67;;;13.17;;
1775;SDS011;885;42.626;23.200;2022-07-31T05:43:37;16.27;;;14.40;;
1775;SDS011;885;42.626;23.200;2022-07-31T05:46:04;14.50;;;12.70;;
1775;SDS011;885;42.626;23.200;2022-07-31T05:48:32;15.50;;;14.00;;
1775;SDS011;885;42.626;23.200;2022-07-31T05:50:59;14.97;;;12.70;;
1775;SDS011;885;42.626;23.200;2022-07-31T05:53:26;20.90;;;16.27;;
1775;SDS011;885;42.626;23.200;2022-07-31T05:55:53;17.00;;;15.00;;
1775;SDS011;885;42.626;23.200;2022-07-31T05:58:19;18.00;;;16.10;;
1775;SDS011;885;42.626;23.200;2022-07-31T06:00:49;17.57;;;14.70;;
1775;SDS011;885;42.626;23.200;2022-07-31T06:03:20;20.97;;;17.40;;
1775;SDS011;885;42.626;23.200;2022-07-31T06:05:48;16.07;;;14.13;;
1775;SDS011;885;42.626;23.200;2022-07-31T06:08:15;15.80;;;14.10;;
1775;SDS011;885;42.626;23.200;2022-07-31T06:10:42;17.27;;;14.83;;
1775;SDS011;885;42.626;23.200;2022-07-31T06:13:09;16.77;;;13.83;;
1775;SDS011;885;42.626;23.200;2022-07-31T06:15:39;20.63;;;16.03;;
1775;SDS011;885;42.626;23.200;2022-07-31T06:18:07;18.77;;;15.53;;
1775;SDS011;885;42.626;23.200;2022-07-31T06:20:35;19.47;;;15.97;;
1775;SDS011;885;42.626;23.200;2022-07-31T06:23:02;18.27;;;15.43;;
1775;SDS011;885;42.626;23.200;2022-07-31T06:25:29;18.30;;;15.40;;
1775;SDS011;885;42.626;23.200;2022-07-31T06:27:56;18.40;;;16.40;;
1775;SDS011;885;42.626;23.200;2022-07-31T06:30:23;16.63;;;14.00;;
1775;SDS011;885;42.626;23.200;2022-07-31T06:32:50;17.47;;;14.90;;
1775;SDS011;885;42.626;23.200;2022-07-31T06:35:18;16.90;;;15.10;;
1775;SDS011;885;42.626;23.200;2022-07-31T06:37:45;18.43;;;16.37;;
1775;SDS011;885;42.626;23.200;2022-07-31T06:40:12;18.60;;;15.87;;
1775;SDS011;885;42.626;23.200;2022-07-31T06:42:39;20.47;;;18.17;;
1775;SDS011;885;42.626;23.200;2022-07-31T06:45:06;18.07;;;16.00;;
1775;SDS011;885;42.626;23.200;2022-07-31T06:47:34;20.63;;;18.33;;
1775;SDS011;885;42.626;23.200;2022-07-31T06:50:01;22.23;;;17.50;;
1775;SDS011;885;42.626;23.200;2022-07-31T06:52:30;21.00;;;17.50;;
1775;SDS011;885;42.626;23.200;2022-07-31T06:54:57;21.60;;;17.93;;
1775;SDS011;885;42.626;23.200;2022-07-31T06:57:25;19.00;;;16.67;;
1775;SDS011;885;42.626;23.200;2022-07-31T06:59:52;20.50;;;18.30;;
1775;SDS011;885;42.626;23.200;2022-07-31T07:02:18;19.83;;;17.70;;
1775;SDS011;885;42.626;23.200;2022-07-31T07:04:46;20.47;;;18.27;;
1775;SDS011;885;42.626;23.200;2022-07-31T07:07:13;19.17;;;17.10;;
1775;SDS011;885;42.626;23.200;2022-07-31T07:09:41;19.00;;;17.03;;
1775;SDS011;885;42.626;23.200;2022-07-31T07:12:08;19.97;;;17.80;;
1775;SDS011;885;42.626;23.200;2022-07-31T07:14:35;17.60;;;15.70;;
1775;SDS011;885;42.626;23.200;2022-07-31T07:17:02;22.20;;;19.03;;
1775;SDS011;885;42.626;23.200;2022-07-31T07:19:30;23.37;;;17.17;;
1775;SDS011;885;42.626;23.200;2022-07-31T07:21:57;19.27;;;17.27;;
1775;SDS011;885;42.626;23.200;2022-07-31T07:24:23;22.33;;;18.17;;
1775;SDS011;885;42.626;23.200;2022-07-31T07:26:52;19.87;;;17.40;;
1775;SDS011;885;42.626;23.200;2022-07-31T07:29:18;20.00;;;17.80;;
1775;SDS011;885;42.626;23.200;2022-07-31T07:31:45;20.30;;;18.10;;
1775;SDS011;885;42.626;23.200;2022-07-31T07:34:12;22.63;;;17.83;;
1775;SDS011;885;42.626;23.200;2022-07-31T07:36:39;19.60;;;17.60;;
1775;SDS011;885;42.626;23.200;2022-07-31T07:39:06;22.60;;;18.97;;
1775;SDS011;885;42.626;23.200;2022-07-31T07:41:33;22.27;;;19.87;;
1775;SDS011;885;42.626;23.200;2022-07-31T07:44:01;18.60;;;16.60;;
1775;SDS011;885;42.626;23.200;2022-07-31T07:46:28;22.10;;;17.67;;
1775;SDS011;885;42.626;23.200;2022-07-31T07:48:55;20.17;;;18.00;;
1775;SDS011;885;42.626;23.200;2022-07-31T07:51:22;19.70;;;16.77;;
1775;SDS011;885;42.626;23.200;2022-07-31T07:53:49;20.53;;;18.30;;
1775;SDS011;885;42.626;23.200;2022-07-31T07:56:16;17.50;;;15.63;;
1775;SDS011;885;42.626;23.200;2022-07-31T07:58:43;19.17;;;15.77;;
1775;SDS011;885;42.626;23.200;2022-07-31T08:01:11;17.33;;;14.30;;
1775;SDS011;885;42.626;23.200;2022-07-31T08:03:38;16.33;;;14.40;;
1775;SDS011;885;42.626;23.200;2022-07-31T08:06:05;21.43;;;15.70;;
1775;SDS011;885;42.626;23.200;2022-07-31T08:08:32;16.43;;;13.77;;
1775;SDS011;885;42.626;23.200;2022-07-31T08:10:58;17.33;;;14.20;;
1775;SDS011;885;42.626;23.200;2022-07-31T08:13:27;15.60;;;13.70;;
1775;SDS011;885;42.626;23.200;2022-07-31T08:15:54;16.27;;;14.20;;
1775;SDS011;885;42.626;23.200;2022-07-31T08:18:22;18.53;;;15.07;;
1775;SDS011;885;42.626;23.200;2022-07-31T08:20:49;18.33;;;15.03;;
1775;SDS011;885;42.626;23.200;2022-07-31T08:23:16;15.67;;;13.47;;
1775;SDS011;885;42.626;23.200;2022-07-31T08:25:42;14.00;;;12.43;;
1775;SDS011;885;42.626;23.200;2022-07-31T08:28:09;15.60;;;13.83;;
1775;SDS011;885;42.626;23.200;2022-07-31T08:30:36;16.27;;;13.20;;
1775;SDS011;885;42.626;23.200;2022-07-31T08:33:03;17.30;;;13.90;;
1775;SDS011;885;42.626;23.200;2022-07-31T08:35:31;16.80;;;14.13;;
1775;SDS011;885;42.626;23.200;2022-07-31T08:37:57;17.30;;;14.87;;
1775;SDS011;885;42.626;23.200;2022-07-31T08:40:24;13.30;;;11.90;;
1775;SDS011;885;42.626;23.200;2022-07-31T08:42:54;15.40;;;12.93;;
1775;SDS011;885;42.626;23.200;2022-07-31T08:45:21;16.40;;;14.70;;
1775;SDS011;885;42.626;23.200;2022-07-31T08:47:47;16.20;;;14.60;;
1775;SDS011;885;42.626;23.200;2022-07-31T08:50:15;16.87;;;14.73;;
1775;SDS011;885;42.626;23.200;2022-07-31T08:52:43;17.70;;;14.70;;
1775;SDS011;885;42.626;23.200;2022-07-31T08:55:13;18.30;;;15.20;;
1775;SDS011;885;42.626;23.200;2022-07-31T08:57:41;15.50;;;13.40;;
1775;SDS011;885;42.626;23.200;2022-07-31T09:00:08;18.43;;;15.13;;
1775;SDS011;885;42.626;23.200;2022-07-31T09:02:39;18.70;;;15.63;;
1775;SDS011;885;42.626;23.200;2022-07-31T09:05:06;17.03;;;14.87;;
1775;SDS011;885;42.626;23.200;2022-07-31T09:07:34;17.43;;;14.77;;
1775;SDS011;885;42.626;23.200;2022-07-31T09:10:05;17.43;;;14.50;;
1775;SDS011;885;42.626;23.200;2022-07-31T09:12:33;17.20;;;14.57;;
1775;SDS011;885;42.626;23.200;2022-07-31T09:15:00;18.70;;;15.00;;
1775;SDS011;885;42.626;23.200;2022-07-31T09:17:31;20.80;;;16.27;;
1775;SDS011;885;42.626;23.200;2022-07-31T09:20:00;22.90;;;17.83;;
1775;SDS011;885;42.626;23.200;2022-07-31T09:22:30;23.00;;;17.77;;
1775;SDS011;885;42.626;23.200;2022-07-31T09:25:09;21.00;;;18.60;;
1775;SDS011;885;42.626;23.200;2022-07-31T09:27:37;21.60;;;17.50;;
1775;SDS011;885;42.626;23.200;2022-07-31T09:30:07;22.67;;;18.00;;
1775;SDS011;885;42.626;23.200;2022-07-31T09:32:35;21.90;;;18.33;;
1775;SDS011;885;42.626;23.200;2022-07-31T09:35:05;21.00;;;17.50;;
1775;SDS011;885;42.626;23.200;2022-07-31T09:37:34;22.13;;;17.67;;
1775;SDS011;885;42.626;23.200;2022-07-31T09:40:03;21.37;;;18.67;;
1775;SDS011;885;42.626;23.200;2022-07-31T09:42:36;20.30;;;17.00;;
1775;SDS011;885;42.626;23.200;2022-07-31T09:45:14;18.40;;;16.30;;
1775;SDS011;885;42.626;23.200;2022-07-31T09:47:44;20.13;;;16.20;;
1775;SDS011;885;42.626;23.200;2022-07-31T09:50:11;23.13;;;18.57;;
1775;SDS011;885;42.626;23.200;2022-07-31T09:52:38;23.67;;;18.50;;
1775;SDS011;885;42.626;23.200;2022-07-31T09:55:06;18.73;;;14.97;;
1775;SDS011;885;42.626;23.200;2022-07-31T09:57:36;16.93;;;14.93;;
1775;SDS011;885;42.626;23.200;2022-07-31T10:00:06;18.40;;;15.23;;
1775;SDS011;885;42.626;23.200;2022-07-31T10:02:34;18.57;;;15.03;;
1775;SDS011;885;42.626;23.200;2022-07-31T10:05:03;16.43;;;14.70;;
1775;SDS011;885;42.626;23.200;2022-07-31T10:07:31;16.77;;;15.10;;
1775;SDS011;885;42.626;23.200;2022-07-31T10:10:01;18.97;;;15.97;;
1775;SDS011;885;42.626;23.200;2022-07-31T10:12:30;20.83;;;16.23;;
1775;SDS011;885;42.626;23.200;2022-07-31T10:15:03;18.23;;;15.97;;
1775;SDS011;885;42.626;23.200;2022-07-31T10:17:35;16.10;;;13.83;;
1775;SDS011;885;42.626;23.200;2022-07-31T10:20:06;15.20;;;13.33;;
1775;SDS011;885;42.626;23.200;2022-07-31T10:22:35;15.90;;;14.30;;
1775;SDS011;885;42.626;23.200;2022-07-31T10:25:08;17.53;;;15.73;;
1775;SDS011;885;42.626;23.200;2022-07-31T10:27:37;16.13;;;14.43;;
1775;SDS011;885;42.626;23.200;2022-07-31T10:30:07;17.40;;;15.30;;
1775;SDS011;885;42.626;23.200;2022-07-31T10:32:35;17.13;;;15.33;;
1775;SDS011;885;42.626;23.200;2022-07-31T10:35:03;19.53;;;17.63;;
1775;SDS011;885;42.626;23.200;2022-07-31T10:37:33;16.00;;;14.40;;
1775;SDS011;885;42.626;23.200;2022-07-31T10:40:06;16.70;;;15.00;;
1775;SDS011;885;42.626;23.200;2022-07-31T10:42:40;18.50;;;16.60;;
1775;SDS011;885;42.626;23.200;2022-07-31T10:45:12;17.27;;;15.57;;
1775;SDS011;885;42.626;23.200;2022-07-31T10:47:51;18.63;;;16.73;;
1775;SDS011;885;42.626;23.200;2022-07-31T10:50:19;19.73;;;17.63;;
1775;SDS011;885;42.626;23.200;2022-07-31T10:52:47;17.30;;;15.23;;
1775;SDS011;885;42.626;23.200;2022-07-31T10:55:14;18.10;;;16.37;;
1775;SDS011;885;42.626;23.200;2022-07-31T10:57:42;18.50;;;16.50;;
1775;SDS011;885;42.626;23.200;2022-07-31T11:00:09;17.20;;;15.50;;
1775;SDS011;885;42.626;23.200;2022-07-31T11:02:38;17.43;;;15.63;;
1775;SDS011;885;42.626;23.200;2022-07-31T11:05:09;16.23;;;14.70;;
1775;SDS011;885;42.626;23.200;2022-07-31T11:07:38;16.97;;;15.00;;
1775;SDS011;885;42.626;23.200;2022-07-31T11:10:13;14.70;;;13.30;;
1775;SDS011;885;42.626;23.200;2022-07-31T11:12:41;12.67;;;11.47;;
1775;SDS011;885;42.626;23.200;2022-07-31T11:15:19;14.23;;;12.93;;
1775;SDS011;885;42.626;23.200;2022-07-31T11:17:49;13.33;;;12.00;;
1775;SDS011;885;42.626;23.200;2022-07-31T11:20:17;16.60;;;14.90;;
1775;SDS011;885;42.626;23.200;2022-07-31T11:22:53;14.23;;;12.83;;
1775;SDS011;885;42.626;23.200;2022-07-31T11:25:21;15.67;;;14.07;;
1775;SDS011;885;42.626;23.200;2022-07-31T11:27:48;13.77;;;12.30;;
1775;SDS011;885;42.626;23.200;2022-07-31T11:30:15;17.27;;;14.67;;
1775;SDS011;885;42.626;23.200;2022-07-31T11:32:46;13.40;;;12.10;;
1775;SDS011;885;42.626;23.200;2022-07-31T11:35:24;15.20;;;13.60;;
1775;SDS011;885;42.626;23.200;2022-07-31T11:37:52;15.13;;;13.63;;
1775;SDS011;885;42.626;23.200;2022-07-31T11:40:19;16.80;;;15.10;;
1775;SDS011;885;42.626;23.200;2022-07-31T11:42:46;16.40;;;14.70;;
1775;SDS011;885;42.626;23.200;2022-07-31T11:45:13;16.50;;;14.90;;
1775;SDS011;885;42.626;23.200;2022-07-31T11:47:41;18.40;;;16.50;;
1775;SDS011;885;42.626;23.200;2022-07-31T11:50:09;18.17;;;16.27;;
1775;SDS011;885;42.626;23.200;2022-07-31T11:52:38;17.70;;;15.93;;
1775;SDS011;885;42.626;23.200;2022-07-31T11:55:08;16.60;;;14.93;;
1775;SDS011;885;42.626;23.200;2022-07-31T11:57:36;17.33;;;15.57;;
1775;SDS011;885;42.626;23.200;2022-07-31T12:00:10;18.03;;;16.23;;
1775;SDS011;885;42.626;23.200;2022-07-31T12:02:40;31.97;;;20.70;;
1775;SDS011;885;42.626;23.200;2022-07-31T12:05:08;20.10;;;18.03;;
1775;SDS011;885;42.626;23.200;2022-07-31T12:07:38;18.03;;;15.57;;
1775;SDS011;885;42.626;23.200;2022-07-31T12:10:07;15.37;;;13.97;;
1775;SDS011;885;42.626;23.200;2022-07-31T12:12:36;15.70;;;14.17;;
1775;SDS011;885;42.626;23.200;2022-07-31T12:15:14;15.47;;;13.97;;
1775;SDS011;885;42.626;23.200;2022-07-31T12:17:43;16.13;;;14.73;;
1775;SDS011;885;42.626;23.200;2022-07-31T12:20:11;13.30;;;12.10;;
1775;SDS011;885;42.626;23.200;2022-07-31T12:22:39;14.90;;;13.50;;
1775;SDS011;885;42.626;23.200;2022-07-31T12:25:07;16.37;;;14.70;;
1775;SDS011;885;42.626;23.200;2022-07-31T12:27:36;16.53;;;14.97;;
1775;SDS011;885;42.626;23.200;2022-07-31T12:30:13;14.77;;;13.27;;
1775;SDS011;885;42.626;23.200;2022-07-31T12:32:41;14.53;;;13.07;;
1775;SDS011;885;42.626;23.200;2022-07-31T12:35:08;14.73;;;13.43;;
1775;SDS011;885;42.626;23.200;2022-07-31T12:37:43;13.03;;;11.83;;
1775;SDS011;885;42.626;23.200;2022-07-31T12:40:20;14.83;;;13.50;;
1775;SDS011;885;42.626;23.200;2022-07-31T12:42:49;14.37;;;13.07;;
1775;SDS011;885;42.626;23.200;2022-07-31T12:45:15;16.07;;;14.57;;
1775;SDS011;885;42.626;23.200;2022-07-31T12:47:53;16.87;;;15.27;;
1775;SDS011;885;42.626;23.200;2022-07-31T12:50:20;15.97;;;14.47;;
1775;SDS011;885;42.626;23.200;2022-07-31T12:52:49;14.80;;;13.43;;
1775;SDS011;885;42.626;23.200;2022-07-31T12:55:16;15.50;;;14.00;;
1775;SDS011;885;42.626;23.200;2022-07-31T12:57:43;16.00;;;14.50;;
1775;SDS011;885;42.626;23.200;2022-07-31T13:00:11;16.77;;;15.23;;
1775;SDS011;885;42.626;23.200;2022-07-31T13:02:38;15.80;;;14.30;;
1775;SDS011;885;42.626;23.200;2022-07-31T13:05:06;16.27;;;14.70;;
1775;SDS011;885;42.626;23.200;2022-07-31T13:07:34;14.50;;;13.20;;
1775;SDS011;885;42.626;23.200;2022-07-31T13:10:02;15.00;;;13.70;;
1775;SDS011;885;42.626;23.200;2022-07-31T13:12:29;14.07;;;12.73;;
1775;SDS011;885;42.626;23.200;2022-07-31T13:14:56;15.90;;;14.20;;
1775;SDS011;885;42.626;23.200;2022-07-31T13:17:23;14.07;;;12.87;;
1775;SDS011;885;42.626;23.200;2022-07-31T13:19:49;12.43;;;11.23;;
1775;SDS011;885;42.626;23.200;2022-07-31T13:22:16;12.10;;;11.00;;
1775;SDS011;885;42.626;23.200;2022-07-31T13:24:43;13.37;;;12.27;;
1775;SDS011;885;42.626;23.200;2022-07-31T13:27:11;12.93;;;11.77;;
1775;SDS011;885;42.626;23.200;2022-07-31T13:29:38;11.50;;;10.50;;
1775;SDS011;885;42.626;23.200;2022-07-31T13:32:05;12.27;;;11.07;;
1775;SDS011;885;42.626;23.200;2022-07-31T13:34:32;11.80;;;10.80;;
1775;SDS011;885;42.626;23.200;2022-07-31T13:36:59;12.10;;;10.80;;
1775;SDS011;885;42.626;23.200;2022-07-31T13:39:26;12.23;;;11.23;;
1775;SDS011;885;42.626;23.200;2022-07-31T13:41:53;11.50;;;10.50;;
1775;SDS011;885;42.626;23.200;2022-07-31T13:44:21;11.73;;;10.67;;
1775;SDS011;885;42.626;23.200;2022-07-31T13:46:48;13.10;;;11.97;;
1775;SDS011;885;42.626;23.200;2022-07-31T13:49:15;13.10;;;11.13;;
1775;SDS011;885;42.626;23.200;2022-07-31T13:51:41;12.30;;;11.30;;
1775;SDS011;885;42.626;23.200;2022-07-31T13:54:09;13.63;;;12.33;;
1775;SDS011;885;42.626;23.200;2022-07-31T13:56:36;13.07;;;11.97;;
1775;SDS011;885;42.626;23.200;2022-07-31T13:59:03;15.37;;;12.50;;
1775;SDS011;885;42.626;23.200;2022-07-31T14:01:32;13.33;;;12.23;;
1775;SDS011;885;42.626;23.200;2022-07-31T14:03:58;13.80;;;12.50;;
1775;SDS011;885;42.626;23.200;2022-07-31T14:06:25;13.87;;;12.67;;
1775;SDS011;885;42.626;23.200;2022-07-31T14:08:52;13.80;;;12.60;;
1775;SDS011;885;42.626;23.200;2022-07-31T14:11:19;12.93;;;11.93;;
1775;SDS011;885;42.626;23.200;2022-07-31T14:13:46;14.80;;;13.50;;
1775;SDS011;885;42.626;23.200;2022-07-31T14:16:12;13.10;;;12.00;;
1775;SDS011;885;42.626;23.200;2022-07-31T14:18:41;11.53;;;10.63;;
1775;SDS011;885;42.626;23.200;2022-07-31T14:21:07;12.67;;;11.60;;
1775;SDS011;885;42.626;23.200;2022-07-31T14:23:34;13.10;;;12.00;;
1775;SDS011;885;42.626;23.200;2022-07-31T14:26:01;12.90;;;11.80;;
1775;SDS011;885;42.626;23.200;2022-07-31T14:28:29;12.43;;;11.43;;
1775;SDS011;885;42.626;23.200;2022-07-31T14:30:56;10.80;;;10.00;;
1775;SDS011;885;42.626;23.200;2022-07-31T14:33:23;11.80;;;10.80;;
1775;SDS011;885;42.626;23.200;2022-07-31T14:35:51;11.30;;;10.40;;
1775;SDS011;885;42.626;23.200;2022-07-31T14:38:18;10.83;;;9.80;;
1775;SDS011;885;42.626;23.200;2022-07-31T14:40:44;10.80;;;9.90;;
1775;SDS011;885;42.626;23.200;2022-07-31T14:43:12;11.07;;;10.07;;
1775;SDS011;885;42.626;23.200;2022-07-31T14:45:39;10.60;;;9.80;;
1775;SDS011;885;42.626;23.200;2022-07-31T14:48:06;10.00;;;9.20;;
1775;SDS011;885;42.626;23.200;2022-07-31T14:50:33;11.00;;;10.10;;
1775;SDS011;885;42.626;23.200;2022-07-31T14:53:04;9.67;;;8.70;;
1775;SDS011;885;42.626;23.200;2022-07-31T14:55:34;9.93;;;9.13;;
1775;SDS011;885;42.626;23.200;2022-07-31T14:58:01;10.00;;;9.20;;
1775;SDS011;885;42.626;23.200;2022-07-31T15:00:27;11.20;;;10.20;;
1775;SDS011;885;42.626;23.200;2022-07-31T15:02:54;11.37;;;10.37;;
1775;SDS011;885;42.626;23.200;2022-07-31T15:05:21;10.03;;;9.13;;